Time;durP1;ratioP1;P1;durP2;ratioP2;P2;SDS_P1;SDS_P2;PMS_P1;PMS_P2;Temp;Humidity;BMP_temperature;BMP_pressure;BME280_temperature;BME280_humidity;BME280_pressure;Samples;Min_cycle;Max_cycle;Signal;HPM_P1;HPM_P2
2022/09/02 00:01:24;;;;;;;;;;;22.20;83.40;;;;;;5096901;28;19954;-54
2022/09/02 00:03:50;;;;;;;;;;;22.20;83.50;;;;;;5097481;28;20308;-56
2022/09/02 00:06:16;;;;;;;;;;;22.20;83.50;;;;;;5097036;28;19912;-56
2022/09/02 00:08:42;;;;;;;;;;;22.20;83.40;;;;;;5097018;28;20424;-54
2022/09/02 00:11:11;;;;;;;;;;;22.20;83.50;;;;;;5096998;28;20377;-54
2022/09/02 00:13:36;;;;;;;;;;;22.20;83.50;;;;;;5096677;28;20475;-54
2022/09/02 00:16:02;;;;;;;;;;;22.20;83.50;;;;;;5096908;28;20002;-56
2022/09/02 00:18:28;;;;;;;;;;;22.20;83.40;;;;;;5095432;28;20347;-51
2022/09/02 00:20:54;;;;;;;;;;;22.20;83.40;;;;;;5096778;28;19908;-53
2022/09/02 00:23:19;;;;;;;;;;;22.20;83.50;;;;;;5095397;28;19915;-55
2022/09/02 00:25:45;;;;;;;;;;;22.20;83.50;;;;;;5096618;28;19912;-53
2022/09/02 00:28:12;;;;;;;;;;;22.20;83.50;;;;;;5096652;28;20346;-55
2022/09/02 00:30:38;;;;;;;;;;;22.20;83.50;;;;;;5096301;28;19908;-55
2022/09/02 00:33:04;;;;;;;;;;;22.20;83.50;;;;;;5095278;28;19908;-56
2022/09/02 00:35:30;;;;;;;;;;;22.20;83.50;;;;;;5096173;28;19915;-56
2022/09/02 00:37:55;;;;;;;;;;;22.20;83.50;;;;;;5095534;28;20264;-53
2022/09/02 00:40:22;;;;;;;;;;;22.20;83.50;;;;;;5095769;28;19909;-55
2022/09/02 00:42:48;;;;;;;;;;;22.20;83.50;;;;;;5096178;28;19912;-54
2022/09/02 00:45:13;;;;;;;;;;;22.20;83.50;;;;;;5095857;28;19915;-53
2022/09/02 00:47:39;;;;;;;;;;;22.20;83.50;;;;;;5095847;28;19994;-52
2022/09/02 00:50:07;;;;;;;;;;;22.20;83.50;;;;;;5095679;28;19908;-54
2022/09/02 00:52:40;;;;;;;;;;;22.20;83.50;;;;;;5095801;28;20352;-53
2022/09/02 00:55:14;;;;;;;;;;;22.20;83.50;;;;;;5094825;28;19931;-56
2022/09/02 00:57:43;;;;;;;;;;;22.20;83.50;;;;;;5095687;28;19955;-55
2022/09/02 01:00:08;;;;;;;;;;;22.20;83.50;;;;;;5095876;28;19909;-56
2022/09/02 01:02:36;;;;;;;;;;;22.20;83.50;;;;;;5095842;28;20055;-50
2022/09/02 01:05:02;;;;;;;;;;;22.20;83.50;;;;;;5095859;28;19953;-51
2022/09/02 01:07:29;;;;;;;;;;;22.20;83.50;;;;;;5095222;28;19919;-53
2022/09/02 01:09:55;;;;;;;;;;;22.20;83.50;;;;;;5095486;28;19912;-52
2022/09/02 01:12:21;;;;;;;;;;;22.20;83.50;;;;;;5095410;28;19991;-55
2022/09/02 01:14:47;;;;;;;;;;;22.20;83.50;;;;;;5094100;28;19955;-56
2022/09/02 01:17:12;;;;;;;;;;;22.20;83.50;;;;;;5095590;28;19908;-56
2022/09/02 01:19:41;;;;;;;;;;;22.20;83.50;;;;;;5095535;28;19908;-53
2022/09/02 01:22:19;;;;;;;;;;;22.20;83.50;;;;;;5094314;28;20282;-55
2022/09/02 01:24:44;;;;;;;;;;;22.10;83.50;;;;;;5095543;28;19908;-55
2022/09/02 01:27:13;;;;;;;;;;;22.10;83.50;;;;;;5095103;28;19912;-55
2022/09/02 01:29:39;;;;;;;;;;;22.20;83.50;;;;;;5095062;28;19912;-53
2022/09/02 01:32:04;;;;;;;;;;;22.10;83.30;;;;;;5095136;28;19908;-55
2022/09/02 01:34:30;;;;;;;;;;;22.10;83.30;;;;;;5094878;28;20013;-55
2022/09/02 01:36:55;;;;;;;;;;;22.10;83.40;;;;;;5094890;28;19957;-50
2022/09/02 01:39:21;;;;;;;;;;;22.10;83.30;;;;;;5094818;28;19915;-54
2022/09/02 01:41:46;;;;;;;;;;;22.10;83.30;;;;;;5095061;28;20321;-54
2022/09/02 01:44:13;;;;;;;;;;;22.10;83.40;;;;;;5094777;28;19953;-54
2022/09/02 01:46:38;;;;;;;;;;;22.10;83.50;;;;;;5095134;28;19919;-54
2022/09/02 01:49:04;;;;;;;;;;;22.10;83.40;;;;;;5093419;28;19912;-56
2022/09/02 01:51:30;;;;;;;;;;;22.10;83.50;;;;;;5094662;28;20006;-53
2022/09/02 01:53:55;;;;;;;;;;;22.10;83.50;;;;;;5094945;28;19912;-53
2022/09/02 01:56:21;;;;;;;;;;;22.10;83.40;;;;;;5094926;28;20272;-54
2022/09/02 01:58:46;;;;;;;;;;;22.10;83.30;;;;;;5094641;28;19916;-53
2022/09/02 02:01:12;;;;;;;;;;;22.10;83.20;;;;;;5095227;28;20354;-53
2022/09/02 02:03:37;;;;;;;;;;;22.10;83.50;;;;;;5095197;28;20015;-54
2022/09/02 02:06:10;;;;;;;;;;;22.10;83.50;;;;;;5094677;28;19916;-53
2022/09/02 02:08:36;;;;;;;;;;;22.10;83.60;;;;;;5094377;28;19935;-54
2022/09/02 02:11:01;;;;;;;;;;;22.10;83.50;;;;;;5094339;28;20343;-55
2022/09/02 02:13:27;;;;;;;;;;;22.10;83.50;;;;;;5094691;28;19920;-56
2022/09/02 02:15:52;;;;;;;;;;;22.10;83.50;;;;;;5094266;28;19951;-55
2022/09/02 02:18:18;;;;;;;;;;;22.00;83.40;;;;;;5094155;28;19915;-53
2022/09/02 02:20:43;;;;;;;;;;;22.10;83.60;;;;;;5094399;28;19953;-55
2022/09/02 02:23:09;;;;;;;;;;;22.00;83.50;;;;;;5094468;28;19999;-52
2022/09/02 02:25:34;;;;;;;;;;;22.00;83.50;;;;;;5094331;28;19916;-52
2022/09/02 02:28:00;;;;;;;;;;;22.00;83.60;;;;;;5094067;28;20046;-54
2022/09/02 02:30:25;;;;;;;;;;;22.00;83.40;;;;;;5093128;28;19908;-52
2022/09/02 02:32:51;;;;;;;;;;;22.00;83.60;;;;;;5094237;28;19908;-56
2022/09/02 02:35:18;;;;;;;;;;;22.00;83.40;;;;;;5094244;28;19919;-53
2022/09/02 02:37:44;;;;;;;;;;;22.00;83.50;;;;;;5093006;28;19954;-55
2022/09/02 02:40:10;;;;;;;;;;;22.00;83.60;;;;;;5094265;28;19948;-55
2022/09/02 02:42:36;;;;;;;;;;;22.00;83.60;;;;;;5094142;28;20412;-53
2022/09/02 02:45:02;;;;;;;;;;;22.00;83.60;;;;;;5094360;28;19991;-52
2022/09/02 02:47:28;;;;;;;;;;;22.00;83.60;;;;;;5094085;28;19912;-52
2022/09/02 02:49:53;;;;;;;;;;;22.00;83.60;;;;;;5094389;28;20426;-51
2022/09/02 02:52:19;;;;;;;;;;;22.00;83.60;;;;;;5094023;28;19961;-56
2022/09/02 02:54:45;;;;;;;;;;;22.00;83.60;;;;;;5094044;28;19915;-54
2022/09/02 02:57:10;;;;;;;;;;;22.00;83.60;;;;;;5092682;28;19922;-52
2022/09/02 02:59:36;;;;;;;;;;;22.00;83.60;;;;;;5092835;28;19908;-56
2022/09/02 03:02:02;;;;;;;;;;;22.00;83.60;;;;;;5095329;28;20326;-52
2022/09/02 03:04:28;;;;;;;;;;;22.00;83.60;;;;;;5097964;28;19957;-54
2022/09/02 03:06:53;;;;;;;;;;;22.00;83.60;;;;;;5097793;28;20304;-53
2022/09/02 03:09:19;;;;;;;;;;;22.00;83.60;;;;;;5096727;28;19927;-56
2022/09/02 03:11:45;;;;;;;;;;;22.00;83.60;;;;;;5097986;28;19915;-55
2022/09/02 03:14:10;;;;;;;;;;;22.00;83.60;;;;;;5097512;28;20382;-56
2022/09/02 03:16:36;;;;;;;;;;;22.00;83.60;;;;;;5097923;28;19912;-54
2022/09/02 03:19:02;;;;;;;;;;;22.00;83.60;;;;;;5097890;28;19995;-52
2022/09/02 03:21:27;;;;;;;;;;;22.00;83.70;;;;;;5096557;28;19912;-56
2022/09/02 03:23:53;;;;;;;;;;;22.00;83.70;;;;;;5097468;28;19915;-55
2022/09/02 03:26:20;;;;;;;;;;;22.00;83.60;;;;;;5097827;28;19982;-53
2022/09/02 03:28:46;;;;;;;;;;;22.00;83.70;;;;;;5096293;28;19912;-54
2022/09/02 03:31:13;;;;;;;;;;;22.00;83.60;;;;;;5097201;28;19911;-54
2022/09/02 03:33:38;;;;;;;;;;;21.90;83.60;;;;;;5097125;28;19908;-55
2022/09/02 03:36:04;;;;;;;;;;;22.00;83.60;;;;;;5097046;28;20351;-55
2022/09/02 03:38:29;;;;;;;;;;;22.00;83.60;;;;;;5097294;28;19933;-52
2022/09/02 03:40:55;;;;;;;;;;;22.00;83.60;;;;;;5097110;28;19916;-52
2022/09/02 03:43:20;;;;;;;;;;;22.00;83.60;;;;;;5097383;28;19946;-54
2022/09/02 03:45:46;;;;;;;;;;;22.00;83.60;;;;;;5095939;28;20274;-56
2022/09/02 03:48:12;;;;;;;;;;;22.00;83.60;;;;;;5097584;28;19916;-54
2022/09/02 03:50:39;;;;;;;;;;;22.00;83.60;;;;;;5096980;28;19908;-54
2022/09/02 03:53:05;;;;;;;;;;;22.00;83.60;;;;;;5095949;28;19908;-54
2022/09/02 03:55:31;;;;;;;;;;;21.90;83.60;;;;;;5097507;28;19908;-55
2022/09/02 03:57:56;;;;;;;;;;;21.90;83.60;;;;;;5096886;28;19919;-54
2022/09/02 04:00:24;;;;;;;;;;;21.90;83.50;;;;;;5097088;28;19991;-53
2022/09/02 04:02:50;;;;;;;;;;;21.90;83.60;;;;;;5096907;28;19927;-51
2022/09/02 04:05:16;;;;;;;;;;;21.90;83.60;;;;;;5096985;28;19950;-52
2022/09/02 04:07:41;;;;;;;;;;;21.90;83.60;;;;;;5096617;28;19983;-55
2022/09/02 04:10:07;;;;;;;;;;;21.90;83.60;;;;;;5096897;28;20010;-55
2022/09/02 04:12:34;;;;;;;;;;;21.90;83.60;;;;;;5096727;28;20373;-56
2022/09/02 04:14:59;;;;;;;;;;;21.90;83.60;;;;;;5097105;28;19908;-53
2022/09/02 04:17:24;;;;;;;;;;;21.90;83.60;;;;;;5096652;28;20363;-56
2022/09/02 04:19:52;;;;;;;;;;;21.90;83.50;;;;;;5096224;28;19974;-54
2022/09/02 04:22:18;;;;;;;;;;;21.90;83.60;;;;;;5096243;28;19943;-51
2022/09/02 04:24:43;;;;;;;;;;;21.90;83.60;;;;;;5096503;28;19962;-55
2022/09/02 04:27:09;;;;;;;;;;;21.90;83.60;;;;;;5096162;28;19912;-53
2022/09/02 04:29:34;;;;;;;;;;;21.90;83.60;;;;;;5096352;28;19958;-56
2022/09/02 04:32:00;;;;;;;;;;;21.90;83.60;;;;;;5096312;28;19914;-52
2022/09/02 04:34:25;;;;;;;;;;;21.90;83.70;;;;;;5095882;28;20309;-53
2022/09/02 04:36:51;;;;;;;;;;;21.90;83.70;;;;;;5096159;28;19963;-55
2022/09/02 04:39:17;;;;;;;;;;;21.90;83.70;;;;;;5096146;28;19919;-56
2022/09/02 04:41:43;;;;;;;;;;;21.90;83.60;;;;;;5095899;28;19912;-55
2022/09/02 04:44:09;;;;;;;;;;;21.90;83.60;;;;;;5096429;28;19954;-53
2022/09/02 04:46:35;;;;;;;;;;;21.90;83.70;;;;;;5095543;28;20316;-57
2022/09/02 04:49:00;;;;;;;;;;;21.90;83.60;;;;;;5096358;28;19912;-52
2022/09/02 04:51:26;;;;;;;;;;;21.90;83.70;;;;;;5095623;28;19908;-55
2022/09/02 04:53:52;;;;;;;;;;;21.90;83.70;;;;;;5095598;28;19915;-56
2022/09/02 04:56:20;;;;;;;;;;;21.90;83.70;;;;;;5095754;28;19965;-53
2022/09/02 04:58:46;;;;;;;;;;;21.90;83.70;;;;;;5094504;28;19908;-54
2022/09/02 05:01:16;;;;;;;;;;;21.80;83.60;;;;;;5095859;28;20366;-54
2022/09/02 05:03:43;;;;;;;;;;;21.90;83.70;;;;;;5095518;28;20008;-54
2022/09/02 05:06:10;;;;;;;;;;;21.80;83.60;;;;;;5095327;28;20301;-54
2022/09/02 05:08:35;;;;;;;;;;;21.80;83.60;;;;;;5094365;28;19912;-55
2022/09/02 05:11:07;;;;;;;;;;;21.80;83.60;;;;;;5095222;28;20342;-55
2022/09/02 05:13:33;;;;;;;;;;;21.90;83.60;;;;;;5095194;28;19908;-53
2022/09/02 05:15:58;;;;;;;;;;;21.80;83.60;;;;;;5095266;28;20282;-55
2022/09/02 05:18:24;;;;;;;;;;;21.90;83.70;;;;;;5095323;28;19954;-55
2022/09/02 05:20:50;;;;;;;;;;;21.90;83.70;;;;;;5095322;28;20243;-51
2022/09/02 05:23:15;;;;;;;;;;;21.80;83.60;;;;;;5095376;28;19977;-52
2022/09/02 05:25:41;;;;;;;;;;;21.90;83.70;;;;;;5094457;28;20355;-55
2022/09/02 05:28:10;;;;;;;;;;;21.80;83.60;;;;;;5095486;28;19916;-55
2022/09/02 05:30:36;;;;;;;;;;;21.80;83.60;;;;;;5095226;28;19908;-55
2022/09/02 05:33:02;;;;;;;;;;;21.80;83.60;;;;;;5095054;28;19908;-55
2022/09/02 05:35:28;;;;;;;;;;;21.80;83.60;;;;;;5094709;28;20381;-53
2022/09/02 05:37:53;;;;;;;;;;;21.80;83.60;;;;;;5094863;28;19913;-53
2022/09/02 05:40:19;;;;;;;;;;;21.80;83.50;;;;;;5094602;28;20390;-53
2022/09/02 05:42:44;;;;;;;;;;;21.80;83.50;;;;;;5094528;28;19916;-54
2022/09/02 05:45:10;;;;;;;;;;;21.80;83.50;;;;;;5094348;28;19914;-53
2022/09/02 05:47:36;;;;;;;;;;;21.80;83.60;;;;;;5094623;28;19912;-53
2022/09/02 05:50:02;;;;;;;;;;;21.80;83.50;;;;;;5095086;28;19958;-54
2022/09/02 05:52:27;;;;;;;;;;;21.80;83.60;;;;;;5094387;28;20313;-54
2022/09/02 05:54:53;;;;;;;;;;;21.80;83.60;;;;;;5094127;28;19951;-51
2022/09/02 05:57:20;;;;;;;;;;;21.80;83.60;;;;;;5094492;28;19991;-53
2022/09/02 05:59:47;;;;;;;;;;;21.80;83.60;;;;;;5094461;28;19908;-55
2022/09/02 06:02:13;;;;;;;;;;;21.80;83.60;;;;;;5094379;28;20401;-56
2022/09/02 06:04:40;;;;;;;;;;;21.80;83.60;;;;;;5093946;28;19912;-55
2022/09/02 06:07:06;;;;;;;;;;;21.80;83.60;;;;;;5093020;28;19965;-54
2022/09/02 06:09:31;;;;;;;;;;;21.80;83.50;;;;;;5094708;28;19912;-56
2022/09/02 06:11:57;;;;;;;;;;;21.80;83.60;;;;;;5094331;28;19965;-52
2022/09/02 06:14:26;;;;;;;;;;;21.70;83.60;;;;;;5094062;28;19950;-55
2022/09/02 06:16:53;;;;;;;;;;;21.80;83.60;;;;;;5094494;28;19915;-52
2022/09/02 06:19:19;;;;;;;;;;;21.80;83.50;;;;;;5093828;28;19991;-53
2022/09/02 06:21:45;;;;;;;;;;;21.80;83.60;;;;;;5093937;28;19995;-53
2022/09/02 06:24:11;;;;;;;;;;;21.80;83.50;;;;;;5093829;28;20432;-54
2022/09/02 06:26:37;;;;;;;;;;;21.80;83.50;;;;;;5093974;28;19994;-55
2022/09/02 06:29:04;;;;;;;;;;;21.80;83.50;;;;;;5093643;28;19912;-52
2022/09/02 06:31:29;;;;;;;;;;;21.80;83.40;;;;;;5092867;28;19961;-55
2022/09/02 06:33:55;;;;;;;;;;;21.80;84.00;;;;;;5092662;28;19928;-54
2022/09/02 06:36:22;;;;;;;;;;;21.80;83.60;;;;;;5091606;28;19914;-56
2022/09/02 06:38:49;;;;;;;;;;;21.80;83.50;;;;;;5093508;28;19912;-54
2022/09/02 06:41:16;;;;;;;;;;;21.80;83.40;;;;;;5093983;28;19951;-55
2022/09/02 06:43:42;;;;;;;;;;;21.80;83.40;;;;;;5093655;28;19956;-52
2022/09/02 06:46:13;;;;;;;;;;;21.80;83.40;;;;;;5093539;28;19912;-56
2022/09/02 06:48:38;;;;;;;;;;;21.80;83.40;;;;;;5093555;28;19926;-55
2022/09/02 06:51:04;;;;;;;;;;;21.80;83.40;;;;;;5093945;28;19999;-52
2022/09/02 06:53:29;;;;;;;;;;;21.80;83.50;;;;;;5093401;28;20412;-54
2022/09/02 06:55:55;;;;;;;;;;;21.80;83.50;;;;;;5093675;28;19908;-54
2022/09/02 06:58:20;;;;;;;;;;;21.80;83.40;;;;;;5093752;28;19909;-52
2022/09/02 07:00:46;;;;;;;;;;;21.80;83.40;;;;;;5093410;28;20049;-51
2022/09/02 07:06:14;;;;;;;;;;;21.90;83.30;;;;;;5093324;28;19920;-53
2022/09/02 07:08:41;;;;;;;;;;;21.80;83.30;;;;;;5093671;28;20342;-56
2022/09/02 07:11:13;;;;;;;;;;;21.80;83.30;;;;;;5092377;28;20374;-54
2022/09/02 07:13:38;;;;;;;;;;;21.80;83.20;;;;;;5093822;28;19908;-54
2022/09/02 07:16:05;;;;;;;;;;;21.80;83.40;;;;;;5093447;28;20263;-55
2022/09/02 07:18:30;;;;;;;;;;;21.80;83.40;;;;;;5092242;28;19908;-55
2022/09/02 07:20:56;;;;;;;;;;;21.80;83.40;;;;;;5093178;28;20107;-56
2022/09/02 07:23:21;;;;;;;;;;;21.80;83.30;;;;;;5092266;28;19908;-56
2022/09/02 07:25:47;;;;;;;;;;;21.80;83.30;;;;;;5093842;28;19959;-56
2022/09/02 07:28:12;;;;;;;;;;;21.80;83.30;;;;;;5093646;28;19957;-53
2022/09/02 07:30:40;;;;;;;;;;;21.80;83.20;;;;;;5093532;28;20007;-55
2022/09/02 07:33:05;;;;;;;;;;;21.80;83.30;;;;;;5093409;28;20352;-54
2022/09/02 07:35:32;;;;;;;;;;;21.80;83.20;;;;;;5093407;28;19913;-52
2022/09/02 07:37:57;;;;;;;;;;;21.80;83.20;;;;;;5092064;28;20274;-52
2022/09/02 07:40:23;;;;;;;;;;;21.80;83.20;;;;;;5093562;28;19908;-52
2022/09/02 07:42:49;;;;;;;;;;;21.80;83.30;;;;;;5093144;28;19999;-52
2022/09/02 07:45:15;;;;;;;;;;;21.80;83.10;;;;;;5093194;28;19915;-56
2022/09/02 07:47:40;;;;;;;;;;;21.80;83.20;;;;;;5093793;28;19919;-55
2022/09/02 07:50:06;;;;;;;;;;;21.80;83.20;;;;;;5096441;28;20278;-55
2022/09/02 07:52:31;;;;;;;;;;;21.80;83.10;;;;;;5096590;28;19908;-53
2022/09/02 07:54:57;;;;;;;;;;;21.80;83.10;;;;;;5096383;28;20384;-53
2022/09/02 07:57:23;;;;;;;;;;;21.80;83.20;;;;;;5096751;28;19920;-54
2022/09/02 07:59:48;;;;;;;;;;;21.80;83.30;;;;;;5096879;28;19908;-56
2022/09/02 08:02:15;;;;;;;;;;;21.80;83.20;;;;;;5095350;28;20416;-55
2022/09/02 08:04:42;;;;;;;;;;;21.80;83.10;;;;;;5095770;28;20334;-53
2022/09/02 08:07:08;;;;;;;;;;;21.80;83.10;;;;;;5096269;28;20328;-52
2022/09/02 08:09:33;;;;;;;;;;;21.80;83.10;;;;;;5096687;28;19912;-50
2022/09/02 08:11:59;;;;;;;;;;;21.90;83.10;;;;;;5096497;28;20011;-50
2022/09/02 08:14:26;;;;;;;;;;;21.80;83.00;;;;;;5096517;28;19914;-54
2022/09/02 08:16:52;;;;;;;;;;;21.80;83.00;;;;;;5096425;28;20307;-53
2022/09/02 08:19:18;;;;;;;;;;;21.80;83.00;;;;;;5096380;28;19974;-51
2022/09/02 08:21:44;;;;;;;;;;;21.80;83.00;;;;;;5096354;28;20355;-50
2022/09/02 08:24:09;;;;;;;;;;;21.80;83.10;;;;;;5096536;28;19908;-53
2022/09/02 08:26:38;;;;;;;;;;;21.90;83.10;;;;;;5096311;28;20361;-54
2022/09/02 08:29:04;;;;;;;;;;;21.80;83.00;;;;;;5095876;28;19912;-55
2022/09/02 08:31:30;;;;;;;;;;;21.80;83.00;;;;;;5094850;28;19922;-54
2022/09/02 08:33:56;;;;;;;;;;;21.80;82.90;;;;;;5096017;28;19951;-49
2022/09/02 08:36:22;;;;;;;;;;;21.90;83.00;;;;;;5095988;28;19955;-52
2022/09/02 08:38:48;;;;;;;;;;;21.80;82.80;;;;;;5096186;28;19915;-52
2022/09/02 08:41:20;;;;;;;;;;;21.80;82.80;;;;;;5094719;28;20302;-53
2022/09/02 08:43:46;;;;;;;;;;;21.90;82.90;;;;;;5096231;28;19908;-53
2022/09/02 08:46:15;;;;;;;;;;;21.80;82.70;;;;;;5095755;28;19965;-51
2022/09/02 08:48:47;;;;;;;;;;;21.80;82.80;;;;;;5095903;28;19919;-52
2022/09/02 08:51:18;;;;;;;;;;;21.80;82.70;;;;;;5096066;28;19943;-55
2022/09/02 08:53:57;;;;;;;;;;;21.80;82.60;;;;;;5094324;28;19981;-55
2022/09/02 08:56:25;;;;;;;;;;;21.80;82.70;;;;;;5094627;28;19908;-54
2022/09/02 08:58:55;;;;;;;;;;;21.80;82.70;;;;;;5095050;28;19908;-51
2022/09/02 09:01:32;;;;;;;;;;;21.80;82.70;;;;;;5095053;28;19908;-54
2022/09/02 09:04:01;;;;;;;;;;;21.90;82.70;;;;;;5094300;28;20410;-53
2022/09/02 09:06:45;;;;;;;;;;;21.90;82.60;;;;;;5095961;28;20003;-53
2022/09/02 09:09:34;;;;;;;;;;;21.80;82.50;;;;;;5095711;28;19912;-55
2022/09/02 09:12:02;;;;;;;;;;;21.80;82.50;;;;;;5095274;28;19908;-53
2022/09/02 09:14:40;;;;;;;;;;;21.80;82.40;;;;;;5095552;28;19908;-53
2022/09/02 09:17:11;;;;;;;;;;;21.90;82.40;;;;;;5095320;28;19908;-52
2022/09/02 09:19:50;;;;;;;;;;;21.90;82.40;;;;;;5095557;28;20321;-54
2022/09/02 09:22:20;;;;;;;;;;;21.90;82.30;;;;;;5093634;28;19909;-54
2022/09/02 09:24:47;;;;;;;;;;;21.90;82.20;;;;;;5095719;28;19908;-50
2022/09/02 09:27:17;;;;;;;;;;;21.80;82.20;;;;;;5094991;28;19912;-55
2022/09/02 09:29:43;;;;;;;;;;;21.90;82.30;;;;;;5095253;28;20270;-52
2022/09/02 09:32:16;;;;;;;;;;;21.90;82.20;;;;;;5094810;28;19919;-54
2022/09/02 09:35:01;;;;;;;;;;;21.90;82.20;;;;;;5095310;28;20266;-56
2022/09/02 09:37:30;;;;;;;;;;;21.90;82.20;;;;;;5095010;28;19920;-52
2022/09/02 09:39:55;;;;;;;;;;;21.80;82.20;;;;;;5095061;28;20408;-51
2022/09/02 09:42:47;;;;;;;;;;;21.90;82.20;;;;;;5094958;28;19912;-55
2022/09/02 09:45:20;;;;;;;;;;;21.80;82.10;;;;;;5078516;28;19908;-55
2022/09/02 09:48:05;;;;;;;;;;;21.90;82.20;;;;;;5094516;28;19919;-55
2022/09/02 09:50:30;;;;;;;;;;;21.80;82.20;;;;;;5094312;28;19913;-56
2022/09/02 09:53:12;;;;;;;;;;;21.90;82.30;;;;;;5094408;28;20018;-55
2022/09/02 09:55:53;;;;;;;;;;;21.90;82.20;;;;;;5094878;28;19908;-54
2022/09/02 09:58:20;;;;;;;;;;;21.90;82.20;;;;;;5094247;28;19915;-54
2022/09/02 10:00:45;;;;;;;;;;;21.90;82.10;;;;;;5094686;28;19908;-54
2022/09/02 10:03:19;;;;;;;;;;;21.90;82.00;;;;;;5094377;28;19920;-54
2022/09/02 10:05:45;;;;;;;;;;;21.80;82.00;;;;;;5094590;28;20263;-56
2022/09/02 10:08:16;;;;;;;;;;;21.80;82.00;;;;;;5094039;28;19919;-55
2022/09/02 10:10:58;;;;;;;;;;;21.90;82.00;;;;;;5094186;28;19908;-54
2022/09/02 10:13:25;;;;;;;;;;;21.90;82.10;;;;;;5092945;28;19980;-53
2022/09/02 10:16:10;;;;;;;;;;;21.90;82.20;;;;;;5094538;28;19999;-57
2022/09/02 10:18:48;;;;;;;;;;;21.90;82.20;;;;;;5092870;28;19908;-54
2022/09/02 10:21:37;;;;;;;;;;;21.90;82.10;;;;;;5094027;28;19908;-56
2022/09/02 10:24:12;;;;;;;;;;;21.80;82.00;;;;;;5092832;28;19912;-55
2022/09/02 10:26:57;;;;;;;;;;;21.90;81.90;;;;;;5093685;28;20002;-54
2022/09/02 10:29:41;;;;;;;;;;;21.90;81.90;;;;;;5094114;28;19912;-54
2022/09/02 10:32:19;;;;;;;;;;;21.90;81.90;;;;;;5093846;28;19912;-56
2022/09/02 10:34:51;;;;;;;;;;;21.90;81.90;;;;;;5093897;28;19984;-53
2022/09/02 10:37:18;;;;;;;;;;;21.90;81.90;;;;;;5093908;28;19912;-54
2022/09/02 10:39:44;;;;;;;;;;;21.90;81.90;;;;;;5092827;28;19908;-51
2022/09/02 10:42:18;;;;;;;;;;;21.90;82.00;;;;;;5093613;28;19954;-54
2022/09/02 10:44:54;;;;;;;;;;;21.90;82.00;;;;;;5093928;28;19950;-51
2022/09/02 10:47:19;;;;;;;;;;;21.90;81.90;;;;;;5093407;28;19912;-52
2022/09/02 10:49:48;;;;;;;;;;;21.90;81.70;;;;;;5093612;28;20252;-55
2022/09/02 10:52:37;;;;;;;;;;;21.90;81.90;;;;;;5093848;28;19908;-54
2022/09/02 10:55:23;;;;;;;;;;;21.90;81.90;;;;;;5093823;28;20332;-54
2022/09/02 10:57:51;;;;;;;;;;;21.90;81.80;;;;;;5093673;28;20333;-52
2022/09/02 11:00:18;;;;;;;;;;;21.90;81.80;;;;;;5093681;28;20355;-55
2022/09/02 11:02:50;;;;;;;;;;;21.90;81.80;;;;;;5093761;28;20308;-52
2022/09/02 11:05:17;;;;;;;;;;;21.90;81.80;;;;;;5093641;28;20278;-51
2022/09/02 11:07:54;;;;;;;;;;;21.90;81.80;;;;;;5093782;28;19920;-53
2022/09/02 11:10:23;;;;;;;;;;;21.90;81.90;;;;;;5092645;28;19948;-56
2022/09/02 11:13:09;;;;;;;;;;;21.90;81.90;;;;;;5093673;28;19993;-53
2022/09/02 11:15:45;;;;;;;;;;;21.90;81.90;;;;;;5085920;28;20038;-55
2022/09/02 11:18:29;;;;;;;;;;;21.90;81.80;;;;;;5092435;28;19908;-55
2022/09/02 11:21:02;;;;;;;;;;;21.90;81.80;;;;;;5093459;28;20266;-55
2022/09/02 11:23:39;;;;;;;;;;;21.90;81.80;;;;;;5095853;28;19912;-52
2022/09/02 11:26:17;;;;;;;;;;;21.90;81.70;;;;;;5097163;28;19912;-53
2022/09/02 11:28:53;;;;;;;;;;;21.90;81.60;;;;;;5096284;28;19919;-55
2022/09/02 11:31:20;;;;;;;;;;;21.90;81.60;;;;;;5097275;28;19915;-55
2022/09/02 11:33:54;;;;;;;;;;;21.90;81.70;;;;;;5096901;28;19908;-53
2022/09/02 11:36:20;;;;;;;;;;;21.90;81.70;;;;;;5097393;28;20016;-52
2022/09/02 11:38:45;;;;;;;;;;;21.90;81.90;;;;;;5097019;28;19908;-55
2022/09/02 11:41:23;;;;;;;;;;;21.90;81.90;;;;;;5097121;28;20382;-53
2022/09/02 11:44:18;;;;;;;;;;;21.90;82.00;;;;;;5096857;28;20274;-56
2022/09/02 11:46:55;;;;;;;;;;;21.90;81.90;;;;;;5087437;28;19912;-54
2022/09/02 11:49:24;;;;;;;;;;;21.90;81.90;;;;;;5096604;28;19981;-56
2022/09/02 11:51:54;;;;;;;;;;;21.90;81.90;;;;;;5096827;28;20371;-54
2022/09/02 11:54:21;;;;;;;;;;;22.00;81.90;;;;;;5095946;28;20358;-56
2022/09/02 11:56:49;;;;;;;;;;;21.90;81.90;;;;;;5097004;28;19915;-54
2022/09/02 11:59:19;;;;;;;;;;;21.90;81.90;;;;;;5097144;28;19908;-52
2022/09/02 12:01:52;;;;;;;;;;;21.90;81.90;;;;;;5096452;28;19912;-54
2022/09/02 12:04:19;;;;;;;;;;;21.90;81.80;;;;;;5096594;28;19912;-53
2022/09/02 12:07:06;;;;;;;;;;;21.90;81.90;;;;;;5096457;28;19913;-56
2022/09/02 12:09:51;;;;;;;;;;;22.00;82.00;;;;;;5095324;28;19923;-56
2022/09/02 12:12:35;;;;;;;;;;;21.90;82.00;;;;;;5096427;28;20239;-55
2022/09/02 12:15:02;;;;;;;;;;;21.90;82.10;;;;;;5095270;28;19912;-54
2022/09/02 12:17:36;;;;;;;;;;;21.90;82.10;;;;;;5096544;28;19919;-53
2022/09/02 12:20:10;;;;;;;;;;;21.90;82.10;;;;;;5096250;28;19936;-50
2022/09/02 12:22:38;;;;;;;;;;;22.00;82.10;;;;;;5096529;28;20030;-55
2022/09/02 12:25:24;;;;;;;;;;;21.90;82.00;;;;;;5096318;28;20279;-54
2022/09/02 12:27:50;;;;;;;;;;;21.90;81.90;;;;;;5095891;28;20389;-52
2022/09/02 12:30:35;;;;;;;;;;;21.90;81.90;;;;;;5096026;28;20006;-51
2022/09/02 12:33:11;;;;;;;;;;;21.90;81.80;;;;;;5096115;28;19965;-54
2022/09/02 12:35:39;;;;;;;;;;;21.90;81.90;;;;;;5095985;28;20386;-56
2022/09/02 12:38:11;;;;;;;;;;;21.90;81.90;;;;;;5095016;28;20358;-56
2022/09/02 12:40:40;;;;;;;;;;;22.00;82.00;;;;;;5096192;28;19908;-55
2022/09/02 12:43:18;;;;;;;;;;;22.00;82.00;;;;;;5096035;28;20262;-52
2022/09/02 12:45:45;;;;;;;;;;;21.90;81.80;;;;;;5096178;28;20282;-55
2022/09/02 12:48:12;;;;;;;;;;;21.90;81.80;;;;;;5096181;28;19912;-52
2022/09/02 12:50:44;;;;;;;;;;;22.00;81.80;;;;;;5095799;28;20019;-53
2022/09/02 12:53:30;;;;;;;;;;;21.90;81.80;;;;;;5096024;28;19999;-56
2022/09/02 12:56:00;;;;;;;;;;;22.00;81.90;;;;;;5095263;28;19908;-55
2022/09/02 12:58:26;;;;;;;;;;;22.00;81.90;;;;;;5095568;28;19915;-51
2022/09/02 13:00:57;;;;;;;;;;;21.90;81.80;;;;;;5094592;28;19915;-53
2022/09/02 13:03:38;;;;;;;;;;;21.90;81.80;;;;;;5095447;28;19919;-56
2022/09/02 13:06:04;;;;;;;;;;;21.90;81.90;;;;;;5095357;28;19919;-54
2022/09/02 13:08:42;;;;;;;;;;;21.90;81.90;;;;;;5094080;28;20006;-52
2022/09/02 13:11:25;;;;;;;;;;;22.00;82.00;;;;;;5095555;28;19912;-53
2022/09/02 13:14:00;;;;;;;;;;;22.00;82.00;;;;;;5094066;28;19912;-54
2022/09/02 13:16:34;;;;;;;;;;;22.00;81.90;;;;;;5094969;28;19914;-54
2022/09/02 13:19:00;;;;;;;;;;;22.00;81.90;;;;;;5095204;28;20282;-50
2022/09/02 13:21:44;;;;;;;;;;;22.00;81.80;;;;;;5094776;28;19908;-53
2022/09/02 13:24:24;;;;;;;;;;;21.90;81.80;;;;;;5095063;28;20058;-50
2022/09/02 13:26:49;;;;;;;;;;;22.00;81.90;;;;;;5094594;28;19919;-55
2022/09/02 13:29:30;;;;;;;;;;;22.00;81.90;;;;;;5093672;28;19912;-52
2022/09/02 13:32:03;;;;;;;;;;;22.00;81.80;;;;;;5093679;28;19957;-54
2022/09/02 13:34:30;;;;;;;;;;;21.90;81.80;;;;;;5094121;28;19957;-54
2022/09/02 13:36:55;;;;;;;;;;;21.90;81.70;;;;;;5094843;28;19915;-54
2022/09/02 13:39:25;;;;;;;;;;;22.00;81.70;;;;;;5093429;28;19908;-56
2022/09/02 13:41:51;;;;;;;;;;;22.00;81.70;;;;;;5094659;28;20354;-51
2022/09/02 13:44:24;;;;;;;;;;;21.90;81.70;;;;;;5093549;28;19915;-51
2022/09/02 13:46:51;;;;;;;;;;;21.90;82.30;;;;;;5094043;28;19912;-54
2022/09/02 13:49:18;;;;;;;;;;;21.90;81.80;;;;;;5094894;28;19916;-56
2022/09/02 13:51:44;;;;;;;;;;;21.90;81.90;;;;;;5094354;28;19938;-53
2022/09/02 13:54:10;;;;;;;;;;;22.00;81.90;;;;;;5093515;28;19908;-52
2022/09/02 13:56:35;;;;;;;;;;;21.90;81.90;;;;;;5095086;28;19912;-54
2022/09/02 13:59:01;;;;;;;;;;;22.00;81.90;;;;;;5094691;28;19908;-55
2022/09/02 14:01:29;;;;;;;;;;;22.00;81.90;;;;;;5093420;28;20291;-55
2022/09/02 14:04:00;;;;;;;;;;;21.90;81.90;;;;;;5094358;28;19919;-51
2022/09/02 14:06:35;;;;;;;;;;;22.00;82.00;;;;;;5094053;28;19944;-52
2022/09/02 14:09:02;;;;;;;;;;;21.90;81.80;;;;;;5094370;28;19912;-53
2022/09/02 14:11:32;;;;;;;;;;;21.90;81.80;;;;;;5094392;28;19919;-51
2022/09/02 14:13:57;;;;;;;;;;;22.00;81.80;;;;;;5094396;28;19912;-53
2022/09/02 14:16:23;;;;;;;;;;;21.90;81.70;;;;;;5094177;28;19908;-54
2022/09/02 14:19:08;;;;;;;;;;;22.00;81.70;;;;;;5094381;28;19908;-55
2022/09/02 14:21:34;;;;;;;;;;;21.90;81.70;;;;;;5094087;28;19908;-54
2022/09/02 14:24:00;;;;;;;;;;;22.00;81.80;;;;;;5093948;28;20317;-52
2022/09/02 14:26:36;;;;;;;;;;;21.90;81.80;;;;;;5092604;28;20453;-54
2022/09/02 14:29:05;;;;;;;;;;;21.90;81.70;;;;;;5093950;28;20393;-54